Time;durP1;ratioP1;P1;durP2;ratioP2;P2;SDS_P1;SDS_P2;PMS_P1;PMS_P2;Temp;Humidity;BMP_temperature;BMP_pressure;BME280_temperature;BME280_humidity;BME280_pressure;Samples;Min_cycle;Max_cycle;Signal;HPM_P1;HPM_P2
2022/03/08 00:01:06;;;;;;;12.50;5.78;;;3.10;89.40;;;;;;5050094;28;20507;-80
2022/03/08 00:03:33;;;;;;;14.70;6.65;;;3.20;89.70;;;;;;5049490;28;20051;-81
2022/03/08 00:05:59;;;;;;;12.27;5.50;;;3.10;89.70;;;;;;5050248;28;20528;-81
2022/03/08 00:08:25;;;;;;;10.98;5.43;;;3.10;89.70;;;;;;5050256;28;20520;-80
2022/03/08 00:10:51;;;;;;;13.02;6.20;;;3.10;89.90;;;;;;5033140;28;20037;-80
2022/03/08 00:13:17;;;;;;;12.40;6.00;;;3.10;90.00;;;;;;5050308;28;20047;-80
2022/03/08 00:15:43;;;;;;;11.65;6.05;;;3.00;90.10;;;;;;5050360;28;20048;-80
2022/03/08 00:18:09;;;;;;;12.75;5.43;;;3.00;90.30;;;;;;5050078;28;20493;-80
2022/03/08 00:20:35;;;;;;;11.77;6.20;;;3.00;90.30;;;;;;5031950;28;20091;-78
2022/03/08 00:23:01;;;;;;;11.23;5.90;;;2.90;90.40;;;;;;5048626;28;20045;-80
2022/03/08 00:25:27;;;;;;;12.63;5.47;;;2.90;90.50;;;;;;5050911;28;20041;-79
2022/03/08 00:27:53;;;;;;;11.80;5.95;;;2.90;90.50;;;;;;5062236;28;20105;-80
2022/03/08 00:30:22;;;;;;;12.95;6.22;;;2.80;90.30;;;;;;5070677;28;20042;-79
2022/03/08 00:32:50;;;;;;;12.57;5.63;;;2.70;90.90;;;;;;5070286;28;20527;-80
2022/03/08 00:35:16;;;;;;;12.15;5.57;;;2.70;90.80;;;;;;5070210;28;20548;-80
2022/03/08 00:37:43;;;;;;;14.32;5.63;;;2.60;91.20;;;;;;5070173;28;20486;-80
2022/03/08 00:40:10;;;;;;;13.68;6.70;;;2.60;91.20;;;;;;5071847;28;20493;-81
2022/03/08 00:42:36;;;;;;;13.32;6.57;;;2.50;91.10;;;;;;5073918;28;20493;-80
2022/03/08 00:45:03;;;;;;;12.15;5.55;;;2.40;91.40;;;;;;5074026;28;20051;-80
2022/03/08 00:47:28;;;;;;;12.20;6.40;;;2.30;91.70;;;;;;5073897;28;20714;-80
2022/03/08 00:49:54;;;;;;;12.95;6.32;;;2.30;91.90;;;;;;5073793;28;20135;-80
2022/03/08 00:52:20;;;;;;;12.60;7.15;;;2.20;92.00;;;;;;5067329;28;20076;-80
2022/03/08 00:54:46;;;;;;;18.73;9.35;;;2.20;92.10;;;;;;5053648;28;20448;-80
2022/03/08 00:57:11;;;;;;;20.70;10.18;;;2.20;92.30;;;;;;5057587;28;20041;-80
2022/03/08 00:59:37;;;;;;;16.65;7.93;;;2.30;92.50;;;;;;5065115;28;20071;-81
2022/03/08 01:02:03;;;;;;;13.45;6.97;;;2.30;92.60;;;;;;5052734;28;20070;-80
2022/03/08 01:04:29;;;;;;;13.75;6.53;;;2.20;92.50;;;;;;5066836;28;20062;-80
2022/03/08 01:06:55;;;;;;;13.25;5.88;;;2.20;92.60;;;;;;5073379;28;20048;-81
2022/03/08 01:09:21;;;;;;;14.77;6.80;;;2.20;92.60;;;;;;5073738;28;20036;-81
2022/03/08 01:11:47;;;;;;;12.93;6.53;;;2.20;92.60;;;;;;5073077;28;20429;-80
2022/03/08 01:14:13;;;;;;;13.73;6.65;;;2.20;92.80;;;;;;5073250;28;20563;-81
2022/03/08 01:16:39;;;;;;;14.43;6.75;;;2.20;92.70;;;;;;5073189;28;20055;-80
2022/03/08 01:19:05;;;;;;;13.40;5.80;;;2.20;92.80;;;;;;5073605;28;20040;-81
2022/03/08 01:21:34;;;;;;;13.27;6.88;;;2.20;93.00;;;;;;5072866;28;20497;-80
2022/03/08 01:24:00;;;;;;;13.40;7.28;;;2.20;93.10;;;;;;5073129;28;20493;-81
2022/03/08 01:26:26;;;;;;;12.57;6.38;;;2.20;93.30;;;;;;5072890;28;20119;-81
2022/03/08 01:28:51;;;;;;;15.63;8.18;;;2.20;93.10;;;;;;5073023;28;20466;-81
2022/03/08 01:31:18;;;;;;;13.95;6.82;;;2.20;93.40;;;;;;5072705;28;20032;-80
2022/03/08 01:33:44;;;;;;;12.02;6.63;;;2.20;93.40;;;;;;5073306;28;20517;-81
2022/03/08 01:36:10;;;;;;;12.80;6.70;;;2.20;93.40;;;;;;5073257;28;20038;-81
2022/03/08 01:38:36;;;;;;;13.25;6.68;;;2.20;93.60;;;;;;5072892;28;20032;-80
2022/03/08 01:41:02;;;;;;;14.48;6.75;;;2.10;93.60;;;;;;5072541;28;20039;-80
2022/03/08 01:43:27;;;;;;;14.50;6.72;;;2.10;93.80;;;;;;5056006;28;20557;-81
2022/03/08 01:45:53;;;;;;;15.57;6.70;;;2.10;93.60;;;;;;5072917;28;20037;-80
2022/03/08 01:48:19;;;;;;;12.73;6.68;;;2.10;93.80;;;;;;5072723;28;20075;-80
2022/03/08 01:50:46;;;;;;;11.50;6.30;;;2.10;93.70;;;;;;5072158;28;20075;-81
2022/03/08 01:53:12;;;;;;;13.82;6.55;;;2.00;93.60;;;;;;5072607;28;20045;-80
2022/03/08 01:55:38;;;;;;;15.70;7.05;;;2.00;93.70;;;;;;5072781;28;20133;-80
2022/03/08 01:58:03;;;;;;;12.60;6.78;;;2.00;93.80;;;;;;5072543;28;20075;-81
2022/03/08 02:00:31;;;;;;;12.43;6.95;;;2.00;94.10;;;;;;5072449;28;20079;-81
2022/03/08 02:02:58;;;;;;;15.88;7.32;;;1.90;94.10;;;;;;5072036;28;20052;-80
2022/03/08 02:05:25;;;;;;;12.20;6.13;;;1.90;94.20;;;;;;5057226;28;20548;-81
2022/03/08 02:07:51;;;;;;;14.38;7.07;;;1.90;94.50;;;;;;5052226;28;20417;-80
2022/03/08 02:10:17;;;;;;;15.68;6.72;;;1.90;94.70;;;;;;5052054;28;20102;-80
2022/03/08 02:12:42;;;;;;;13.95;6.88;;;1.90;94.90;;;;;;5051942;28;20059;-80
2022/03/08 02:15:21;;;;;;;14.50;7.38;;;1.90;95.00;;;;;;5052210;28;20076;-81
2022/03/08 02:17:47;;;;;;;15.38;8.05;;;1.90;95.10;;;;;;5035552;28;20516;-80
2022/03/08 02:20:14;;;;;;;15.20;7.35;;;1.90;95.00;;;;;;5035554;28;20502;-80
2022/03/08 02:22:42;;;;;;;15.82;7.38;;;1.90;95.10;;;;;;5051610;28;20136;-80
2022/03/08 02:25:08;;;;;;;12.68;6.70;;;1.90;95.30;;;;;;5052193;28;20045;-81
2022/03/08 02:27:36;;;;;;;13.20;7.63;;;1.80;95.40;;;;;;5052189;28;20119;-81
2022/03/08 02:30:02;;;;;;;13.15;7.13;;;1.80;95.60;;;;;;5051589;28;20091;-80
2022/03/08 02:32:28;;;;;;;14.25;6.78;;;1.80;95.70;;;;;;5051824;28;20599;-80
2022/03/08 02:34:53;;;;;;;15.32;7.32;;;1.80;95.80;;;;;;5052053;28;20076;-81
2022/03/08 02:37:21;;;;;;;15.35;7.35;;;1.70;95.80;;;;;;5051821;28;20414;-80
2022/03/08 02:39:46;;;;;;;15.63;7.60;;;1.70;95.90;;;;;;5051929;28;20537;-81
2022/03/08 02:42:12;;;;;;;15.55;7.40;;;1.70;96.00;;;;;;5051360;28;20072;-80
2022/03/08 02:44:38;;;;;;;15.75;8.05;;;1.70;95.90;;;;;;5035458;28;20250;-81
2022/03/08 02:47:04;;;;;;;17.52;9.25;;;1.70;96.20;;;;;;5051641;28;20041;-81
2022/03/08 02:49:32;;;;;;;14.80;8.00;;;1.70;96.20;;;;;;5035188;28;20485;-80
2022/03/08 02:51:57;;;;;;;12.90;7.45;;;1.70;96.50;;;;;;5034448;28;20040;-80
2022/03/08 02:54:24;;;;;;;13.75;8.00;;;1.70;96.40;;;;;;5035098;28;20453;-81
2022/03/08 02:56:49;;;;;;;17.15;9.30;;;1.60;96.40;;;;;;5051320;28;20037;-80
2022/03/08 02:59:20;;;;;;;16.17;9.07;;;1.70;96.50;;;;;;5051319;28;20032;-80
2022/03/08 03:01:45;;;;;;;16.75;8.95;;;1.70;96.60;;;;;;5050143;28;20048;-80
2022/03/08 03:04:11;;;;;;;16.92;9.07;;;1.60;96.30;;;;;;5050693;28;20045;-80
2022/03/08 03:06:38;;;;;;;17.08;9.32;;;1.70;96.20;;;;;;5051623;28;20087;-80
2022/03/08 03:09:04;;;;;;;15.93;8.50;;;1.60;96.00;;;;;;5034510;28;20498;-80
2022/03/08 03:11:30;;;;;;;17.25;9.35;;;1.60;96.10;;;;;;5050863;28;20033;-81
2022/03/08 03:13:56;;;;;;;17.60;9.32;;;1.60;96.30;;;;;;5050709;28;20122;-80
2022/03/08 03:16:21;;;;;;;16.88;9.90;;;1.50;96.40;;;;;;5051126;28;20039;-80
2022/03/08 03:18:47;;;;;;;18.80;9.93;;;1.50;96.50;;;;;;5051321;28;20039;-80
2022/03/08 03:21:12;;;;;;;18.58;9.45;;;1.50;96.60;;;;;;5050850;28;20036;-80
2022/03/08 03:23:38;;;;;;;16.08;9.18;;;1.50;96.60;;;;;;5050964;28;20053;-80
2022/03/08 03:26:04;;;;;;;15.45;8.68;;;1.50;96.70;;;;;;5050875;28;20084;-81
2022/03/08 03:28:29;;;;;;;15.23;8.85;;;1.50;96.80;;;;;;5034149;28;20099;-81
2022/03/08 03:30:55;;;;;;;16.05;9.52;;;1.50;97.00;;;;;;5050795;28;20446;-81
2022/03/08 03:33:20;;;;;;;17.73;9.98;;;1.50;96.90;;;;;;5050601;28;20036;-81
2022/03/08 03:35:46;;;;;;;15.75;8.70;;;1.50;96.80;;;;;;5050938;28;20063;-81
2022/03/08 03:38:12;;;;;;;17.88;8.75;;;1.50;97.20;;;;;;5050695;28;20064;-81
2022/03/08 03:40:37;;;;;;;15.23;8.48;;;1.60;96.90;;;;;;5050534;28;20106;-81
2022/03/08 03:43:03;;;;;;;17.33;8.80;;;1.50;97.00;;;;;;5050262;28;20371;-81
2022/03/08 03:45:29;;;;;;;18.90;8.65;;;1.50;97.10;;;;;;5050726;28;20574;-81
2022/03/08 03:47:54;;;;;;;15.57;9.20;;;1.50;97.40;;;;;;5050348;28;20047;-81
2022/03/08 03:50:20;;;;;;;18.30;8.95;;;1.50;97.40;;;;;;5034037;28;20126;-81
2022/03/08 03:52:45;;;;;;;17.23;8.98;;;1.50;97.30;;;;;;5033477;28;20086;-81
2022/03/08 03:55:13;;;;;;;16.20;8.82;;;1.50;97.50;;;;;;5033987;28;20040;-81
2022/03/08 03:57:38;;;;;;;17.23;9.68;;;1.40;97.40;;;;;;5050488;28;20045;-81
2022/03/08 04:00:06;;;;;;;19.13;9.50;;;1.40;97.50;;;;;;5050129;28;20442;-81
2022/03/08 04:02:31;;;;;;;16.20;9.38;;;1.40;97.60;;;;;;5049751;28;20045;-81
2022/03/08 04:04:57;;;;;;;16.55;9.13;;;1.40;97.70;;;;;;5050308;28;20497;-81
2022/03/08 04:07:23;;;;;;;16.08;9.77;;;1.40;97.90;;;;;;5050417;28;20051;-81
2022/03/08 04:09:49;;;;;;;19.75;10.57;;;1.30;98.00;;;;;;5049838;28;20049;-81
2022/03/08 04:12:16;;;;;;;16.65;9.68;;;1.30;98.10;;;;;;5049919;28;20040;-81
2022/03/08 04:14:41;;;;;;;17.88;10.18;;;1.30;98.00;;;;;;5033735;28;20040;-81
2022/03/08 04:17:07;;;;;;;17.70;9.85;;;1.30;98.10;;;;;;5050110;28;20033;-81
2022/03/08 04:19:33;;;;;;;16.52;9.07;;;1.20;98.20;;;;;;5050171;28;20037;-81
2022/03/08 04:21:58;;;;;;;18.52;10.50;;;1.20;98.30;;;;;;5050817;28;20063;-80
2022/03/08 04:24:25;;;;;;;18.60;9.43;;;1.20;98.40;;;;;;5050404;28;20040;-81
2022/03/08 04:26:51;;;;;;;19.38;9.48;;;1.20;98.50;;;;;;5049921;28;20049;-81
2022/03/08 04:29:17;;;;;;;18.17;11.10;;;1.20;98.40;;;;;;5050126;28;20048;-81
2022/03/08 04:31:43;;;;;;;20.48;10.52;;;1.20;98.50;;;;;;5049850;28;20127;-81
2022/03/08 04:34:08;;;;;;;17.30;10.60;;;1.20;98.60;;;;;;5049870;28;20627;-81
2022/03/08 04:36:34;;;;;;;20.13;11.07;;;1.20;98.60;;;;;;5050339;28;20029;-81
2022/03/08 04:38:59;;;;;;;21.63;10.90;;;1.10;98.60;;;;;;5049824;28;20036;-81
2022/03/08 04:41:25;;;;;;;19.30;10.88;;;1.10;98.50;;;;;;5049758;28;20059;-81
2022/03/08 04:43:51;;;;;;;19.45;10.43;;;1.10;98.80;;;;;;5049702;28;20490;-81
2022/03/08 04:46:17;;;;;;;18.30;9.73;;;1.10;98.90;;;;;;5050237;28;20406;-81
2022/03/08 04:48:42;;;;;;;18.58;9.93;;;1.10;99.00;;;;;;5049907;28;20549;-81
2022/03/08 04:51:08;;;;;;;18.95;10.30;;;1.10;99.20;;;;;;5049827;28;20049;-81
2022/03/08 04:53:34;;;;;;;18.23;10.75;;;1.10;99.20;;;;;;5049596;28;20041;-81
2022/03/08 04:55:59;;;;;;;18.60;10.80;;;1.10;99.30;;;;;;5049453;28;20592;-81
2022/03/08 04:58:25;;;;;;;21.33;11.25;;;1.10;99.30;;;;;;5050121;28;20041;-81
2022/03/08 05:00:50;;;;;;;20.73;10.52;;;1.10;99.20;;;;;;5049621;28;20045;-81
2022/03/08 05:03:16;;;;;;;16.48;10.40;;;1.10;99.30;;;;;;5049168;28;20041;-81
2022/03/08 05:05:42;;;;;;;18.65;10.20;;;1.10;99.30;;;;;;5049667;28;20565;-81
2022/03/08 05:08:07;;;;;;;19.67;10.52;;;1.10;99.40;;;;;;5049827;28;20048;-79
2022/03/08 05:10:33;;;;;;;22.38;10.57;;;1.10;99.50;;;;;;5049607;28;20041;-79
2022/03/08 05:13:00;;;;;;;19.83;11.00;;;1.10;99.60;;;;;;5032671;28;20044;-79
2022/03/08 05:15:26;;;;;;;19.15;10.55;;;1.00;99.60;;;;;;5050074;28;20459;-78
2022/03/08 05:17:52;;;;;;;20.05;10.93;;;1.10;99.70;;;;;;5032700;28;20513;-79
2022/03/08 05:20:17;;;;;;;17.77;10.15;;;1.00;99.50;;;;;;5049553;28;20076;-79
2022/03/08 05:22:43;;;;;;;22.38;10.73;;;1.00;99.90;;;;;;5049426;28;20033;-79
2022/03/08 05:25:09;;;;;;;20.08;11.07;;;1.00;99.90;;;;;;5049643;28;20524;-79
2022/03/08 05:27:35;;;;;;;19.13;10.32;;;1.00;99.90;;;;;;5036896;28;20052;-79
2022/03/08 05:30:00;;;;;;;19.63;10.85;;;1.10;99.80;;;;;;5036393;28;20379;-79
2022/03/08 05:32:26;;;;;;;19.00;10.45;;;1.10;99.90;;;;;;5052806;28;20715;-79
2022/03/08 05:34:51;;;;;;;18.00;9.95;;;1.10;99.90;;;;;;5053029;28;20127;-79
2022/03/08 05:37:17;;;;;;;18.95;10.95;;;1.10;99.90;;;;;;5036589;28;20079;-79
2022/03/08 05:39:43;;;;;;;19.90;10.02;;;1.10;99.90;;;;;;5052929;28;20076;-79
2022/03/08 05:42:09;;;;;;;19.70;10.05;;;1.10;99.70;;;;;;5052543;28;20036;-79
2022/03/08 05:44:35;;;;;;;17.23;10.23;;;1.10;99.90;;;;;;5036454;28;20563;-79
2022/03/08 05:47:01;;;;;;;17.13;10.18;;;1.10;99.80;;;;;;5052860;28;20067;-79
2022/03/08 05:49:27;;;;;;;16.13;10.10;;;1.10;99.90;;;;;;5052904;28;20041;-79
2022/03/08 05:51:53;;;;;;;18.15;10.13;;;1.10;99.90;;;;;;5035462;28;20486;-78
2022/03/08 05:54:19;;;;;;;18.08;10.63;;;1.10;99.90;;;;;;5052188;28;20055;-79
2022/03/08 05:56:45;;;;;;;17.45;9.75;;;1.10;99.90;;;;;;5052742;28;20033;-79
2022/03/08 05:59:10;;;;;;;20.92;10.93;;;1.10;99.90;;;;;;5052300;28;20506;-79
2022/03/08 06:01:36;;;;;;;18.60;10.38;;;1.10;99.90;;;;;;5050794;28;20036;-76
2022/03/08 06:04:01;;;;;;;17.77;10.50;;;1.10;99.90;;;;;;5061260;28;20082;-77
2022/03/08 06:06:27;;;;;;;21.10;10.90;;;1.10;99.90;;;;;;5039911;28;20063;-78
2022/03/08 06:08:53;;;;;;;18.63;10.75;;;1.10;99.90;;;;;;5036402;28;20037;-78
2022/03/08 06:11:19;;;;;;;18.30;10.70;;;1.10;99.90;;;;;;5052817;28;20536;-78
2022/03/08 06:13:44;;;;;;;18.17;10.77;;;1.00;99.90;;;;;;5052113;28;20040;-78
2022/03/08 06:16:10;;;;;;;19.45;11.07;;;1.10;99.90;;;;;;5052785;28;20441;-78
2022/03/08 06:18:36;;;;;;;19.50;11.15;;;1.00;99.90;;;;;;5070335;28;20514;-79
2022/03/08 06:21:02;;;;;;;17.73;10.60;;;1.00;99.90;;;;;;5071969;28;20044;-78
2022/03/08 06:23:27;;;;;;;18.85;10.02;;;1.00;99.90;;;;;;5071962;28;20053;-79
2022/03/08 06:25:53;;;;;;;18.92;10.88;;;1.00;99.90;;;;;;5072064;28;20123;-79
2022/03/08 06:28:19;;;;;;;18.52;9.93;;;1.00;99.90;;;;;;5071857;28;20037;-79
2022/03/08 06:30:44;;;;;;;19.08;10.25;;;1.00;99.90;;;;;;5071766;28;20049;-79
2022/03/08 06:33:10;;;;;;;19.98;10.35;;;1.00;99.90;;;;;;5054886;28;20040;-78
2022/03/08 06:35:36;;;;;;;17.58;10.50;;;1.10;99.90;;;;;;5071428;28;20040;-79
2022/03/08 06:38:02;;;;;;;18.45;10.48;;;1.10;99.90;;;;;;5070474;28;20097;-79
2022/03/08 06:40:28;;;;;;;19.17;10.48;;;1.10;99.90;;;;;;5071803;28;20071;-79
2022/03/08 06:42:53;;;;;;;17.85;10.23;;;1.20;99.90;;;;;;5071259;28;20413;-79
2022/03/08 06:45:19;;;;;;;18.10;10.63;;;1.20;99.90;;;;;;5072001;28;20097;-79
2022/03/08 06:47:44;;;;;;;18.13;10.23;;;1.20;99.90;;;;;;5054391;28;20044;-78
2022/03/08 06:50:10;;;;;;;19.52;10.88;;;1.30;99.90;;;;;;5051549;28;20037;-79
2022/03/08 06:52:36;;;;;;;21.13;10.82;;;1.30;99.90;;;;;;5050298;28;20036;-78
2022/03/08 06:55:02;;;;;;;20.55;11.65;;;1.30;99.90;;;;;;5034219;28;20441;-79
2022/03/08 06:57:28;;;;;;;19.45;11.75;;;1.30;99.90;;;;;;5051723;28;20077;-79
2022/03/08 06:59:53;;;;;;;19.95;11.05;;;1.40;99.90;;;;;;5034833;28;20556;-79
2022/03/08 07:02:19;;;;;;;18.42;11.25;;;1.40;99.90;;;;;;5050624;28;20068;-79
2022/03/08 07:04:45;;;;;;;19.17;11.48;;;1.40;99.90;;;;;;5051418;28;20048;-79
2022/03/08 07:07:10;;;;;;;20.42;11.32;;;1.50;99.90;;;;;;5051633;28;20086;-79
2022/03/08 07:09:36;;;;;;;20.98;11.30;;;1.50;99.90;;;;;;5051246;28;20037;-81
2022/03/08 07:12:02;;;;;;;22.45;11.90;;;1.60;99.90;;;;;;5050780;28;20055;-81
2022/03/08 07:14:27;;;;;;;18.25;11.15;;;1.60;99.90;;;;;;5051264;28;20043;-81
2022/03/08 07:16:53;;;;;;;20.88;11.15;;;1.70;99.90;;;;;;5050642;28;20040;-81
2022/03/08 07:19:19;;;;;;;22.40;12.25;;;1.70;99.90;;;;;;5050846;28;20041;-81
2022/03/08 07:21:45;;;;;;;21.38;11.95;;;1.80;99.90;;;;;;5051096;28;20513;-81
2022/03/08 07:24:12;;;;;;;18.23;10.13;;;1.90;99.90;;;;;;5034588;28;20029;-81
2022/03/08 07:26:37;;;;;;;20.00;11.52;;;1.90;99.90;;;;;;5051317;28;20036;-81
2022/03/08 07:29:03;;;;;;;20.85;10.98;;;2.00;99.90;;;;;;5033819;28;20417;-81
2022/03/08 07:31:29;;;;;;;18.45;10.95;;;2.10;99.90;;;;;;5050897;28;20072;-81
2022/03/08 07:33:55;;;;;;;20.30;11.38;;;2.20;99.90;;;;;;5050850;28;20045;-81
2022/03/08 07:36:22;;;;;;;17.25;10.48;;;2.30;99.90;;;;;;5050890;28;20072;-81
2022/03/08 07:38:48;;;;;;;19.73;10.68;;;2.30;99.90;;;;;;5050440;28;20033;-81
2022/03/08 07:41:14;;;;;;;18.50;10.68;;;2.50;99.90;;;;;;5034105;28;20498;-81
2022/03/08 07:43:40;;;;;;;20.95;10.75;;;2.50;99.90;;;;;;5050606;28;20048;-81
2022/03/08 07:46:08;;;;;;;17.17;10.25;;;2.60;99.80;;;;;;5050463;28;20076;-81
2022/03/08 07:48:35;;;;;;;17.00;10.35;;;2.70;99.90;;;;;;5050380;28;20049;-81
2022/03/08 07:51:00;;;;;;;18.58;10.75;;;2.80;99.60;;;;;;5033799;28;20083;-81
2022/03/08 07:53:26;;;;;;;18.70;10.57;;;2.90;99.60;;;;;;5031538;28;20068;-81
2022/03/08 07:55:52;;;;;;;19.00;10.43;;;3.00;99.40;;;;;;5051082;28;20489;-81
2022/03/08 07:58:17;;;;;;;19.38;10.77;;;3.10;99.20;;;;;;5033949;28;20478;-81
2022/03/08 08:00:43;;;;;;;16.92;10.50;;;3.20;99.20;;;;;;5033556;28;20059;-81
2022/03/08 08:03:09;;;;;;;19.15;10.75;;;3.30;99.10;;;;;;5049572;28;20406;-81
2022/03/08 08:05:35;;;;;;;17.90;10.50;;;3.40;99.00;;;;;;5049902;28;20076;-81
2022/03/08 08:08:03;;;;;;;17.30;10.07;;;3.50;99.10;;;;;;5050066;28;20055;-81
2022/03/08 08:10:29;;;;;;;18.42;10.73;;;3.50;98.70;;;;;;5033373;28;20090;-81
2022/03/08 08:12:54;;;;;;;18.00;10.25;;;3.70;98.50;;;;;;5049370;28;20032;-81
2022/03/08 08:15:20;;;;;;;17.50;10.55;;;3.70;98.20;;;;;;5049793;28;20041;-81
2022/03/08 08:17:46;;;;;;;18.35;10.80;;;3.90;98.10;;;;;;5033561;28;20052;-81
2022/03/08 08:20:11;;;;;;;16.23;10.32;;;4.00;97.80;;;;;;5050187;28;20041;-81
2022/03/08 08:22:38;;;;;;;16.63;10.95;;;4.10;97.60;;;;;;5049118;28;20124;-81
2022/03/08 08:25:07;;;;;;;15.88;9.93;;;4.20;97.20;;;;;;5049825;28;20041;-81
2022/03/08 08:27:33;;;;;;;19.98;11.07;;;4.30;97.20;;;;;;5049673;28;20083;-81
2022/03/08 08:29:58;;;;;;;15.43;9.48;;;4.40;97.00;;;;;;5050004;28;20080;-81
2022/03/08 08:32:24;;;;;;;17.13;10.20;;;4.60;96.80;;;;;;5049127;28;20040;-81
2022/03/08 08:34:50;;;;;;;15.43;9.80;;;4.70;96.30;;;;;;5033027;28;20055;-81
2022/03/08 08:37:15;;;;;;;16.48;10.13;;;4.80;96.10;;;;;;5049608;28;20037;-81
2022/03/08 08:39:41;;;;;;;15.32;9.65;;;4.90;95.90;;;;;;5048893;28;20055;-81
2022/03/08 08:42:08;;;;;;;16.75;9.95;;;5.00;95.40;;;;;;5048312;28;20048;-81
2022/03/08 08:44:34;;;;;;;18.52;10.10;;;5.10;95.20;;;;;;5031178;28;20068;-81
2022/03/08 08:47:00;;;;;;;14.90;10.18;;;5.20;94.90;;;;;;5047729;28;20083;-82
2022/03/08 08:49:25;;;;;;;14.00;9.32;;;5.30;94.40;;;;;;5047508;28;20395;-81
2022/03/08 08:51:52;;;;;;;15.77;10.05;;;5.50;94.00;;;;;;5030344;28;20121;-81
2022/03/08 08:54:18;;;;;;;15.10;10.10;;;5.50;93.80;;;;;;5047772;28;20045;-81
2022/03/08 08:56:44;;;;;;;14.98;10.15;;;5.60;93.50;;;;;;5031955;28;20453;-82
2022/03/08 08:59:10;;;;;;;14.60;9.57;;;5.70;93.40;;;;;;5049118;28;20086;-82
2022/03/08 09:01:36;;;;;;;14.57;10.00;;;5.80;92.90;;;;;;5052429;28;20078;-81
2022/03/08 09:04:02;;;;;;;15.63;10.57;;;5.90;92.40;;;;;;5036615;28;20033;-80
2022/03/08 09:06:28;;;;;;;15.45;10.15;;;6.00;91.80;;;;;;5036998;28;20036;-82
2022/03/08 09:08:56;;;;;;;16.33;9.93;;;6.10;91.60;;;;;;5053776;28;20402;-81
2022/03/08 09:11:22;;;;;;;16.63;10.38;;;6.20;91.40;;;;;;5052873;28;20041;-82
2022/03/08 09:13:47;;;;;;;15.15;10.23;;;6.30;91.10;;;;;;5036678;28;20037;-82
2022/03/08 09:16:15;;;;;;;14.20;10.13;;;6.40;91.10;;;;;;5052392;28;20087;-82
2022/03/08 09:18:44;;;;;;;15.48;10.05;;;6.50;91.10;;;;;;5034901;28;20521;-82
2022/03/08 09:21:11;;;;;;;16.00;10.60;;;6.70;90.90;;;;;;5052422;28;20040;-82
2022/03/08 09:23:37;;;;;;;15.88;10.55;;;6.80;90.80;;;;;;5052823;28;20132;-82
2022/03/08 09:26:04;;;;;;;15.75;10.30;;;6.90;90.20;;;;;;5053379;28;20036;-82
2022/03/08 09:28:30;;;;;;;14.68;10.25;;;7.00;89.50;;;;;;5053356;28;20041;-82
2022/03/08 09:30:55;;;;;;;15.23;9.98;;;7.10;88.00;;;;;;5052461;28;20456;-82
2022/03/08 09:33:21;;;;;;;14.52;9.70;;;7.20;87.10;;;;;;5052209;28;20071;-82
2022/03/08 09:35:47;;;;;;;15.05;9.85;;;7.30;86.00;;;;;;5036299;28;20041;-82
2022/03/08 09:38:13;;;;;;;14.57;10.13;;;7.40;85.50;;;;;;5053414;28;20040;-82
2022/03/08 09:40:39;;;;;;;13.68;8.80;;;7.50;84.70;;;;;;5052996;28;20040;-80
2022/03/08 09:43:05;;;;;;;13.57;9.30;;;7.60;83.80;;;;;;5035632;28;20088;-80
2022/03/08 09:45:31;;;;;;;14.93;10.02;;;7.70;83.40;;;;;;5052706;28;20081;-80
2022/03/08 09:47:57;;;;;;;13.27;8.70;;;7.90;83.70;;;;;;5034538;28;20080;-79
2022/03/08 09:50:22;;;;;;;14.68;10.07;;;8.00;82.20;;;;;;5051822;28;20166;-80
2022/03/08 09:52:48;;;;;;;13.10;8.80;;;8.10;80.80;;;;;;5034702;28;20055;-79
2022/03/08 09:55:16;;;;;;;13.68;8.80;;;8.20;79.80;;;;;;5035582;28;20041;-80
2022/03/08 09:57:42;;;;;;;14.85;9.15;;;8.30;78.90;;;;;;5035302;28;20435;-80
2022/03/08 10:00:10;;;;;;;12.48;7.80;;;8.40;78.10;;;;;;5035776;28;20060;-80
2022/03/08 10:02:42;;;;;;;11.95;8.30;;;8.60;77.30;;;;;;5051716;28;20486;-80
2022/03/08 10:05:08;;;;;;;12.37;7.47;;;8.70;75.60;;;;;;5035762;28;20073;-80
2022/03/08 10:07:33;;;;;;;12.27;7.43;;;8.80;75.40;;;;;;5052772;28;20311;-80
2022/03/08 10:10:00;;;;;;;10.25;6.32;;;8.90;72.80;;;;;;5052142;28;20044;-81
2022/03/08 10:12:26;;;;;;;10.82;6.80;;;9.00;70.40;;;;;;5051344;28;20040;-81
2022/03/08 10:14:52;;;;;;;10.02;6.28;;;9.10;69.80;;;;;;5051845;28;20044;-81
2022/03/08 10:17:38;;;;;;;14.52;6.30;;;9.20;68.10;;;;;;5051868;28;20167;-81
2022/03/08 10:20:12;;;;;;;11.85;6.90;;;9.40;65.80;;;;;;5059149;28;20048;-81
2022/03/08 10:22:40;;;;;;;11.48;6.22;;;9.40;66.10;;;;;;5068867;28;20045;-80
2022/03/08 10:25:08;;;;;;;11.52;5.57;;;9.50;65.30;;;;;;5070674;28;20040;-80
2022/03/08 10:27:34;;;;;;;10.57;5.70;;;9.60;65.00;;;;;;5071360;28;20103;-80
2022/03/08 10:30:00;;;;;;;9.43;5.47;;;9.70;64.60;;;;;;5071918;28;20528;-81
2022/03/08 10:32:37;;;;;;;10.32;5.65;;;9.80;64.20;;;;;;5071370;28;20044;-81
2022/03/08 10:35:03;;;;;;;10.35;5.80;;;9.90;63.50;;;;;;5054760;28;20044;-79
2022/03/08 10:37:35;;;;;;;10.10;5.68;;;10.00;63.60;;;;;;5072119;28;20398;-79
2022/03/08 10:40:08;;;;;;;8.90;5.30;;;10.20;62.80;;;;;;5031521;28;20041;-79
2022/03/08 10:42:39;;;;;;;9.77;5.03;;;10.30;61.80;;;;;;5031436;28;20088;-79
2022/03/08 10:45:07;;;;;;;9.70;4.93;;;10.40;61.00;;;;;;5031507;28;20056;-80
2022/03/08 10:47:43;;;;;;;9.18;5.45;;;10.50;60.10;;;;;;5030190;28;20041;-79
2022/03/08 10:50:11;;;;;;;11.25;5.63;;;10.60;60.00;;;;;;5029835;28;20051;-80
2022/03/08 10:52:39;;;;;;;11.15;5.05;;;10.60;59.50;;;;;;5012483;28;20041;-79
2022/03/08 10:55:19;;;;;;;10.10;5.32;;;10.60;58.30;;;;;;5012203;28;20033;-79
2022/03/08 10:57:50;;;;;;;11.73;5.72;;;10.70;57.20;;;;;;5029728;28;20072;-79
2022/03/08 11:00:20;;;;;;;10.05;5.40;;;10.80;58.20;;;;;;5029635;28;20084;-80
2022/03/08 11:02:53;;;;;;;8.43;5.15;;;11.00;58.40;;;;;;5028869;28;20518;-80
2022/03/08 11:05:20;;;;;;;10.65;5.68;;;11.20;57.50;;;;;;5042774;28;20047;-80
2022/03/08 11:07:47;;;;;;;10.07;5.35;;;11.40;57.50;;;;;;5049618;28;20515;-80
2022/03/08 11:10:14;;;;;;;10.13;5.43;;;11.50;56.40;;;;;;5051012;28;20108;-80
2022/03/08 11:12:40;;;;;;;9.63;5.15;;;11.50;56.00;;;;;;5051059;28;20048;-80
2022/03/08 11:15:07;;;;;;;10.52;5.82;;;11.70;56.20;;;;;;5034800;28;20037;-80
2022/03/08 11:17:34;;;;;;;8.70;5.40;;;11.70;56.60;;;;;;5051259;28;20055;-79
2022/03/08 11:20:04;;;;;;;8.85;4.90;;;11.90;55.70;;;;;;5051337;28;20114;-80
2022/03/08 11:22:31;;;;;;;8.75;4.57;;;12.00;55.40;;;;;;5034047;28;20563;-79
2022/03/08 11:24:57;;;;;;;8.73;5.00;;;12.10;54.70;;;;;;5033844;28;20041;-80
2022/03/08 11:27:23;;;;;;;8.48;4.68;;;12.20;53.60;;;;;;5034431;28;20044;-80
2022/03/08 11:29:52;;;;;;;8.05;4.65;;;12.20;52.50;;;;;;5050703;28;20098;-80
2022/03/08 11:32:40;;;;;;;9.50;4.82;;;12.30;52.40;;;;;;5050277;28;20041;-80
2022/03/08 11:35:12;;;;;;;7.40;3.92;;;12.40;51.30;;;;;;5050087;28;20387;-80
2022/03/08 11:37:40;;;;;;;8.60;4.35;;;12.60;51.30;;;;;;5050278;28;20037;-80
2022/03/08 11:40:07;;;;;;;8.68;4.53;;;12.60;51.60;;;;;;5050763;28;20087;-81
2022/03/08 11:42:36;;;;;;;9.10;4.43;;;12.80;51.70;;;;;;5050488;28;20045;-79
2022/03/08 11:45:17;;;;;;;9.02;4.30;;;12.90;50.90;;;;;;5049552;28;20044;-80
2022/03/08 11:47:52;;;;;;;8.35;4.38;;;13.00;50.30;;;;;;5044933;28;20036;-80
2022/03/08 11:50:21;;;;;;;9.40;5.60;;;13.10;49.90;;;;;;5054387;28;20042;-80
2022/03/08 11:52:51;;;;;;;8.90;3.97;;;13.10;49.30;;;;;;5054943;28;20033;-80
2022/03/08 11:55:25;;;;;;;8.85;3.97;;;13.30;49.00;;;;;;5050590;28;20387;-80
2022/03/08 11:58:16;;;;;;;8.07;4.05;;;13.40;48.70;;;;;;5050523;28;20072;-80
2022/03/08 12:00:49;;;;;;;8.00;3.90;;;13.50;47.40;;;;;;5033580;28;20098;-82
2022/03/08 12:03:23;;;;;;;9.68;4.40;;;13.60;48.90;;;;;;5049856;28;20040;-82
2022/03/08 12:05:59;;;;;;;8.77;3.90;;;13.80;49.00;;;;;;5050627;28;20044;-81
2022/03/08 12:08:27;;;;;;;8.80;4.28;;;13.90;47.50;;;;;;5050348;28;20402;-81
2022/03/08 12:11:02;;;;;;;8.07;4.22;;;14.00;48.00;;;;;;5033433;28;20073;-81
2022/03/08 12:13:30;;;;;;;8.95;4.32;;;14.10;47.20;;;;;;5049561;28;20037;-82
2022/03/08 12:16:10;;;;;;;7.70;3.67;;;14.30;47.40;;;;;;5033017;28;20116;-81
2022/03/08 12:18:55;;;;;;;7.82;4.13;;;14.40;46.20;;;;;;5050259;28;20095;-81
2022/03/08 12:21:27;;;;;;;7.55;3.70;;;14.60;45.20;;;;;;5050258;28;20127;-82
2022/03/08 12:23:55;;;;;;;7.45;3.95;;;14.70;45.80;;;;;;5040577;28;20090;-81
2022/03/08 12:26:42;;;;;;;7.22;3.47;;;14.80;45.90;;;;;;5038974;28;20048;-82
2022/03/08 12:29:43;;;;;;;8.85;3.72;;;15.10;44.40;;;;;;5033476;28;20037;-82
2022/03/08 12:32:10;;;;;;;8.73;3.92;;;15.20;44.80;;;;;;5049501;28;20048;-81
2022/03/08 12:34:39;;;;;;;9.40;4.20;;;15.20;44.80;;;;;;5050102;28;20399;-81
2022/03/08 12:37:08;;;;;;;7.60;3.78;;;15.30;44.50;;;;;;5054325;28;20437;-82
2022/03/08 12:39:55;;;;;;;7.55;4.07;;;15.40;43.50;;;;;;5054243;28;20130;-81
2022/03/08 12:42:45;;;;;;;8.43;3.80;;;15.60;42.20;;;;;;5036933;28;20056;-81